• Join FlightAware (Why Join?)
  • Login
  • US Flag 
11:12AM EDT


 

Airport Tracker/Info


-or-


 

Live Flight TrackerFlight Track Log ✈ EGF4174 ✈ 07-Jun-2013 ✈ KSYR - KORD

Flight Track Log - Related Links

Times and Time Zones

All times are in EDT time to prevent confusion due to time zone crossing. See the EGF4174 flight status page for this flight to view local times or setup timezone preferences in your user account.

Time Position Orientation Groundspeed Altitude Reporting Facility
EDT Latitude Longitude Course Direction KTS MPH feet Rate Location/Type
06:56PM 43.1089 -76.0950 286° West 153 176 1,000  Level Boston Center
06:56PM 43.1142 -76.0556 80° East 176 203 2,100 1,980 Climbing Boston Center
06:58PM 43.1875 -76.4375 324° Northwest  Level FlightAware Approximate
06:58PM 43.1581 -76.1828 295° West 228 262 6,200  Level Cleveland Center
06:59PM 43.2073 -76.5510 281° West  Level FlightAware Approximate
06:59PM 43.1744 -76.2811 283° West 243 280 8,500  Level Cleveland Center
07:00PM 43.2283 -76.6707 286° West  Level FlightAware Approximate
07:00PM 43.1908 -76.3883 282° West 277 319 10,500  Level Cleveland Center
07:01PM 43.2536 -76.7889 286° West  Level FlightAware Approximate
07:01PM 43.2114 -76.5008 284° West 302 348 11,700  Level Cleveland Center
07:02PM 43.2300 -76.6108 283° West 321 369 12,600 900 Climbing Cleveland Center
07:03PM 43.2511 -76.7436 282° West 342 394 13,600 1,140 Climbing Cleveland Center
07:04PM 43.2764 -76.8817 284° West 364 419 14,900 1,620 Climbing Cleveland Center
07:05PM 43.2992 -77.0117 284° West 369 425 16,900 2,100 Climbing Cleveland Center
07:06PM 43.3178 -77.1389 281° West 363 418 19,100 2,040 Climbing Cleveland Center
07:07PM 43.3400 -77.2578 284° West 340 391 21,000 1,680 Climbing Cleveland Center
07:08PM 43.3664 -77.3792 287° West 333 383 22,500 1,320 Climbing Cleveland Center
07:09PM 43.3944 -77.5006 288° West 333 383 23,700 1,080 Climbing Cleveland Center
07:10PM 43.4206 -77.6222 286° West 333 383 24,700 960 Climbing Cleveland Center
07:11PM 43.4531 -77.7464 290° West 338 389 25,700 840 Climbing Cleveland Center
07:12PM 43.4664 -77.8775 278° West 338 389 26,400 780 Climbing Cleveland Center
07:13PM 43.4553 -78.0267 264° West 353 406 27,300 780 Climbing Cleveland Center
07:14PM 43.4478 -78.1642 266° West 359 413 28,000 300 Climbing Cleveland Center
07:15PM 43.4403 -78.3044 266° West 365 420 28,000  Level Cleveland Center
07:16PM 43.4306 -78.4536 265° West 384 442 28,000  Level Cleveland Center
07:17PM 43.4186 -78.6056 264° West 395 455 28,000  Level Cleveland Center
07:18PM 43.4000 -78.7167 257° West 400 460 28,000  Level Toronto Center
07:19PM 43.4000 -78.8833 270° West 410 472 28,000  Level Toronto Center
07:20PM 43.3833 -79.0167 260° West 410 472 28,000  Level Toronto Center
07:21PM 43.3667 -79.1667 261° West 410 472 28,000  Level Toronto Center
07:22PM 43.3667 -79.3333 270° West 410 472 28,000  Level Toronto Center
07:23PM 43.3500 -79.5000 262° West 410 472 28,000  Level Toronto Center
07:24PM 43.3333 -79.6500 261° West 410 472 28,000  Level Toronto Center
07:25PM 43.3167 -79.8000 261° West 410 472 28,000  Level Toronto Center
07:26PM 43.3167 -79.9500 270° West 410 472 28,000  Level Toronto Center
07:27PM 43.3000 -80.1167 262° West 410 472 28,000  Level Toronto Center
07:28PM 43.2833 -80.2667 261° West 410 472 28,000  Level Toronto Center
07:29PM 43.2833 -80.4333 270° West 410 472 28,000  Level Toronto Center
07:30PM 43.2667 -80.6000 262° West 410 472 28,000  Level Toronto Center
07:31PM 43.2500 -80.7333 260° West 410 472 28,000  Level Toronto Center
07:32PM 43.2333 -80.9000 262° West 410 472 28,000  Level Toronto Center
07:33PM 43.2167 -81.0500 261° West 410 472 28,000  Level Toronto Center
07:34PM 43.2000 -81.2167 262° West 410 472 28,000  Level Toronto Center
07:35PM 43.2000 -81.3667 270° West 410 472 28,000  Level Toronto Center
07:36PM 43.1833 -81.5333 262° West 410 472 28,000  Level Toronto Center
07:37PM 43.1667 -81.6667 260° West 410 472 28,000  Level Toronto Center
07:38PM 43.1500 -81.8333 262° West 410 472 28,000  Level Toronto Center
07:39PM 43.1333 -81.9833 261° West 410 472 28,000  Level Toronto Center
07:40PM 43.1167 -82.1500 262° West 410 472 28,000  Level Toronto Center
07:41PM 43.1000 -82.3000 261° West 410 472 28,000  Level Toronto Center
07:42PM 43.1000 -82.4333 270° West 410 472 28,000  Level Toronto Center
07:43PM 43.0833 -82.6167 263° West 410 472 28,000  Level Toronto Center
07:44PM 43.0761 -82.7206 265° West 415 478 28,000  Level Cleveland Center
07:45PM 43.0583 -82.8764 261° West 415 478 28,000  Level Cleveland Center
07:46PM 43.0450 -83.0292 263° West 415 478 28,000  Level Cleveland Center
07:47PM 43.0269 -83.1875 261° West 415 478 28,000  Level Cleveland Center
07:48PM 43.0108 -83.3403 262° West 420 483 28,000  Level Cleveland Center
07:49PM 42.9925 -83.4956 261° West 420 483 28,000  Level Cleveland Center
07:50PM 42.9731 -83.6733 262° West 431 496 28,000  Level Cleveland Center
07:51PM 42.9586 -83.8286 263° West 431 496 28,000  Level Cleveland Center
07:52PM 42.9436 -83.9839 263° West 426 490 28,000  Level Cleveland Center
07:53PM 42.9286 -84.1392 263° West 426 490 28,000  Level Cleveland Center
07:54PM 42.9111 -84.2969 261° West 426 490 28,000  Level Cleveland Center
07:55PM 42.9003 -84.4353 264° West 421 484 28,000  Level Cleveland Center
07:56PM 42.8844 -84.5906 262° West 419 482 28,000  Level Chicago Center
07:57PM 42.8675 -84.7458 262° West 416 479 28,000  Level Chicago Center
07:58PM 42.8478 -84.9331 262° West 417 480 28,000  Level Chicago Center
07:59PM 42.8317 -85.0897 262° West 418 481 28,000 -120 Level Chicago Center
08:00PM 42.8156 -85.2447 262° West 416 479 27,800 -780 Descending Chicago Center
08:01PM 42.7978 -85.4014 261° West 418 481 26,400 -1,440 Descending Chicago Center
08:02PM 42.7767 -85.5586 260° West 422 486 24,900 -1,380 Descending Chicago Center
08:03PM 42.7486 -85.7119 256° West 417 480 23,600 -1,260 Descending Chicago Center
08:04PM 42.7208 -85.8650 256° West 414 476 22,300 -1,380 Descending Chicago Center
08:05PM 42.6881 -86.0453 256° West 408 470 20,800 -1,140 Descending Chicago Center
08:06PM 42.6603 -86.1936 256° West 403 464 20,000 -420 Descending Chicago Center
08:07PM 42.6336 -86.3389 256° West 398 458 20,000  Level Chicago Center
08:08PM 42.6067 -86.4819 256° West 392 451 20,000 -120 Level Chicago Center
08:10PM 42.5783 -86.6267 255° West 394 453 19,800 -1,440 Descending Chicago Center
08:11PM 42.5442 -86.7925 254° West 386 444 17,100 -2,400 Descending Chicago Center
08:12PM 42.5064 -86.9283 249° West 379 436 14,900 -2,040 Descending Chicago Center
08:13PM 42.4697 -87.0594 249° West 372 428 12,900 -1,980 Descending Chicago Center
08:14PM 42.4350 -87.1869 250° West 364 419 10,900 -1,440 Descending Chicago Center
08:15PM 42.4008 -87.3114 250° West 352 405 10,000 -480 Descending Chicago Center
08:16PM 42.3608 -87.4489 249° West 346 398 10,000  Level Chicago Center
08:17PM 42.3161 -87.5594 241° Southwest 347 399 10,000  Level Chicago Center
08:18PM 42.2394 -87.6422 219° Southwest 355 409 10,000  Level Chicago Center
08:19PM 42.1625 -87.7211 217° Southwest 351 404 10,000 -360 Level Chicago Center
08:20PM 42.1003 -87.7872 218° Southwest 289 333 9,300 -1,020 Descending Chicago Center
08:21PM 42.0667 -87.8833 245° Southwest 258 297 8,100 -1,200 Descending Chicago TRACON
08:22PM 42.0500 -87.9667 255° West 205 236 7,100 -840 Descending Chicago TRACON
08:23PM 42.0500 -88.0333 270° West 186 214 6,500 -1,080 Descending Chicago TRACON
08:24PM 42.0500 -88.1000 270° West 195 224 5,000 -1,140 Descending Chicago TRACON
08:25PM 42.0333 -88.1833 255° West 201 231 4,100 -480 Descending Chicago TRACON
08:26PM 41.9833 -88.1833 180° South 194 223 4,000 -300 Descending Chicago TRACON
08:27PM 41.9667 -88.1333 114° Southeast 180 207 3,600 -600 Descending Chicago TRACON
08:27PM 41.9661 -88.1136 92° East 183 211 3,300 -960 Descending Chicago Center
08:28PM 41.9667 -88.0667 89° East 171 197 2,600 -900 Descending Chicago TRACON